createdAt,value
2023-03-31T00:47:30.278Z,4.01
2023-03-31T00:56:41.998Z,4.02
2023-03-31T00:59:33.840Z,4.00
2023-03-31T01:39:05.806Z,3.89
2023-03-31T01:41:47.614Z,3.87
2023-03-31T01:44:40.072Z,3.83
2023-03-31T02:10:02.330Z,3.70
2023-03-31T02:12:33.359Z,3.60
2023-03-31T03:51:36.062Z,6.63
2023-03-31T03:54:05.038Z,6.61
2023-03-31T03:56:34.848Z,6.73
2023-03-31T04:00:05.587Z,7.04
2023-03-31T04:02:47.715Z,7.44
2023-03-31T04:05:25.544Z,7.60
2023-03-31T04:08:44.687Z,7.82
2023-03-31T04:11:20.298Z,8.03
2023-03-31T04:14:10.147Z,8.05
2023-03-31T04:16:47.270Z,8.14
2023-03-31T04:19:22.088Z,8.30
2023-03-31T04:21:58.965Z,8.51
2023-03-31T04:24:31.000Z,8.92
2023-03-31T04:27:05.143Z,9.55
2023-03-31T04:29:37.688Z,10.31
2023-03-31T04:32:06.700Z,10.86
2023-03-31T04:34:35.906Z,11.03
2023-03-31T04:37:04.846Z,11.47
2023-03-31T04:39:34.111Z,11.86
2023-03-31T04:42:02.888Z,12.32
2023-03-31T04:44:32.031Z,12.81
2023-03-31T04:47:05.384Z,13.25
2023-03-31T04:49:37.068Z,13.65
2023-03-31T04:52:06.412Z,14.05
2023-03-31T04:54:35.748Z,14.52
2023-03-31T04:57:05.553Z,14.83
2023-03-31T04:59:34.332Z,15.23
2023-03-31T05:02:05.021Z,15.59
2023-03-31T05:04:33.999Z,15.69
2023-03-31T05:07:02.661Z,15.94
2023-03-31T05:09:32.625Z,16.23
2023-03-31T05:12:02.313Z,16.56
2023-03-31T05:14:31.285Z,16.67
2023-03-31T05:16:59.925Z,16.74
2023-03-31T05:19:29.640Z,16.98
2023-03-31T05:21:58.287Z,16.72
2023-03-31T05:24:28.600Z,16.69
2023-03-31T05:26:57.921Z,16.62
2023-03-31T05:29:26.803Z,16.58
2023-03-31T05:31:56.101Z,16.78
2023-03-31T05:34:24.795Z,17.15
2023-03-31T05:36:54.434Z,17.58
2023-03-31T05:39:23.210Z,18.00
2023-03-31T05:41:52.520Z,18.30
2023-03-31T05:44:21.460Z,18.09
2023-03-31T05:46:51.546Z,18.19
2023-03-31T05:49:21.000Z,18.14
2023-03-31T05:51:50.691Z,18.27
2023-03-31T05:54:19.382Z,18.29
2023-03-31T05:56:48.162Z,18.65
2023-03-31T05:59:17.223Z,18.80
2023-03-31T06:01:49.165Z,19.06
2023-03-31T06:04:18.411Z,19.16
2023-03-31T06:06:50.582Z,19.26
2023-03-31T06:09:21.580Z,19.80
2023-03-31T06:11:53.664Z,20.21
2023-03-31T06:14:22.581Z,20.32
2023-03-31T06:16:51.196Z,20.49
2023-03-31T06:19:21.063Z,20.72
2023-03-31T06:21:50.077Z,20.84
2023-03-31T06:24:18.860Z,20.79
2023-03-31T06:26:48.137Z,20.92
2023-03-31T06:29:16.705Z,21.25
2023-03-31T06:31:46.404Z,21.00
2023-03-31T06:34:15.487Z,20.84
2023-03-31T06:36:44.385Z,21.08
2023-03-31T06:39:12.941Z,21.03
2023-03-31T06:41:41.705Z,21.16
2023-03-31T06:44:10.752Z,21.56
2023-03-31T06:46:41.162Z,21.71
2023-03-31T06:49:09.950Z,21.59
2023-03-31T06:51:39.605Z,21.86
2023-03-31T06:54:08.465Z,21.91
2023-03-31T06:56:38.178Z,21.93
2023-03-31T06:59:06.718Z,22.38
2023-03-31T07:01:37.750Z,22.61
2023-03-31T07:04:08.334Z,22.62
2023-03-31T07:06:37.401Z,23.00
2023-03-31T07:09:05.972Z,23.31
2023-03-31T07:11:38.912Z,23.51
2023-03-31T07:14:07.964Z,23.65
2023-03-31T07:16:36.907Z,23.56
2023-03-31T07:19:06.423Z,23.22
2023-03-31T07:21:36.083Z,22.91
2023-03-31T07:24:04.878Z,22.79
2023-03-31T07:26:33.949Z,23.26
2023-03-31T07:29:02.898Z,23.36
2023-03-31T07:31:38.246Z,23.61
2023-03-31T07:34:07.419Z,23.79
2023-03-31T07:36:35.986Z,23.86
2023-03-31T07:39:06.430Z,23.90
2023-03-31T07:41:35.194Z,23.86
2023-03-31T07:44:04.339Z,23.90
2023-03-31T07:46:33.638Z,24.09
2023-03-31T07:49:03.542Z,23.98
2023-03-31T07:51:32.138Z,24.02
2023-03-31T07:54:01.009Z,23.64
2023-03-31T07:56:33.497Z,23.11
2023-03-31T07:59:02.705Z,22.08
2023-03-31T08:01:31.550Z,22.17
2023-03-31T08:04:01.242Z,22.23
2023-03-31T08:06:30.703Z,21.99
2023-03-31T08:08:59.564Z,21.68
2023-03-31T08:11:28.698Z,21.38
2023-03-31T08:13:57.381Z,21.02
2023-03-31T08:16:26.150Z,21.22
2023-03-31T08:18:54.732Z,21.15
2023-03-31T08:21:24.530Z,21.29
2023-03-31T08:24:01.439Z,21.44
2023-03-31T08:26:32.132Z,21.53
2023-03-31T08:29:00.865Z,21.50
2023-03-31T08:31:30.806Z,21.23
2023-03-31T08:33:59.768Z,20.78
2023-03-31T08:36:29.917Z,20.73
2023-03-31T08:38:58.671Z,20.31
2023-03-31T08:41:52.315Z,19.98
2023-03-31T08:44:32.298Z,19.45
2023-03-31T08:47:02.490Z,19.27
2023-03-31T08:49:39.619Z,19.08
2023-03-31T08:52:14.824Z,18.99
2023-03-31T08:54:49.798Z,18.78
2023-03-31T08:57:22.034Z,18.53
2023-03-31T08:59:51.366Z,18.40
2023-03-31T09:02:32.709Z,18.14
2023-03-31T09:05:41.188Z,17.90
2023-03-31T09:08:39.988Z,17.69
2023-03-31T09:11:12.189Z,17.52
2023-03-31T09:14:07.079Z,17.51
2023-03-31T09:16:35.809Z,17.44
2023-03-31T09:19:15.134Z,17.40
2023-03-31T09:21:46.061Z,17.26
2023-03-31T09:24:17.653Z,17.18
2023-03-31T09:27:12.677Z,17.14
2023-03-31T09:29:56.008Z,17.28
2023-03-31T09:32:31.614Z,17.17
2023-03-31T09:35:25.859Z,17.19
2023-03-31T09:37:54.751Z,17.29
2023-03-31T09:40:25.045Z,17.18
2023-03-31T09:43:02.085Z,17.12
2023-03-31T09:45:31.255Z,17.15
2023-03-31T09:48:07.983Z,16.90
2023-03-31T09:50:40.133Z,16.61
2023-03-31T09:53:13.275Z,16.65
2023-03-31T09:55:43.962Z,16.48
2023-03-31T09:58:14.396Z,16.26
2023-03-31T10:00:44.749Z,16.14
2023-03-31T10:03:14.132Z,16.17
2023-03-31T10:05:51.236Z,15.92
2023-03-31T10:08:28.190Z,16.07
2023-03-31T10:11:04.008Z,16.08
2023-03-31T10:13:43.805Z,16.07
2023-03-31T10:16:14.401Z,15.98
2023-03-31T10:18:43.756Z,16.06
2023-03-31T10:21:36.770Z,16.18
2023-03-31T10:24:10.737Z,16.24
2023-03-31T10:26:40.044Z,16.26
2023-03-31T10:29:13.161Z,16.44
2023-03-31T10:31:41.844Z,16.35
2023-03-31T10:34:15.730Z,16.10
2023-03-31T10:36:50.265Z,15.93
2023-03-31T10:39:19.341Z,15.93
2023-03-31T10:41:52.177Z,16.05
2023-03-31T10:44:34.122Z,16.06
2023-03-31T10:47:06.408Z,15.98
2023-03-31T10:49:39.890Z,16.15
2023-03-31T10:52:20.063Z,16.33
2023-03-31T10:54:50.311Z,16.46
2023-03-31T10:57:19.292Z,16.59
2023-03-31T11:00:16.287Z,16.68
2023-03-31T11:03:02.976Z,16.87
2023-03-31T11:05:52.127Z,16.79
2023-03-31T11:08:41.437Z,16.83
2023-03-31T11:11:25.321Z,16.99
2023-03-31T11:14:06.328Z,17.16
2023-03-31T11:16:47.397Z,16.96
2023-03-31T11:19:39.908Z,16.85
2023-03-31T11:22:21.999Z,16.77
2023-03-31T11:24:53.868Z,16.69
2023-03-31T11:27:38.710Z,16.54
2023-03-31T11:30:22.729Z,16.43
2023-03-31T11:33:10.817Z,16.43
2023-03-31T11:36:12.188Z,16.13
2023-03-31T11:38:47.719Z,16.16
2023-03-31T11:41:19.925Z,16.11
2023-03-31T11:44:05.672Z,16.35
2023-03-31T11:46:49.021Z,16.43
2023-03-31T11:49:32.417Z,16.09
2023-03-31T11:52:50.316Z,15.82
2023-03-31T11:55:21.994Z,15.88
2023-03-31T11:58:05.836Z,15.73
2023-03-31T12:00:54.086Z,15.62
2023-03-31T12:03:24.616Z,15.56
2023-03-31T12:05:59.175Z,15.68
2023-03-31T12:08:40.830Z,15.58
2023-03-31T12:11:31.799Z,15.57
2023-03-31T12:14:12.224Z,15.42
2023-03-31T12:16:46.210Z,15.62
2023-03-31T12:19:17.096Z,15.77
2023-03-31T12:21:51.165Z,15.76
2023-03-31T12:24:19.777Z,15.76
2023-03-31T12:26:57.901Z,15.82
2023-03-31T12:29:59.884Z,15.94
2023-03-31T12:32:40.236Z,16.03
2023-03-31T12:35:15.745Z,16.08
2023-03-31T12:38:08.509Z,16.25
2023-03-31T12:40:40.425Z,16.28
2023-03-31T12:43:31.287Z,16.12
2023-03-31T12:46:25.809Z,16.16
2023-03-31T12:49:04.470Z,16.17
2023-03-31T12:51:51.227Z,16.34
2023-03-31T12:54:58.874Z,16.35
2023-03-31T12:57:27.669Z,16.19
2023-03-31T13:00:12.783Z,16.21
2023-03-31T13:02:42.508Z,16.16
2023-03-31T13:05:39.198Z,15.97
2023-03-31T13:08:08.658Z,15.98
2023-03-31T13:10:55.244Z,16.07
2023-03-31T13:13:23.841Z,15.91
2023-03-31T13:15:56.719Z,15.84
2023-03-31T13:18:28.089Z,15.95
2023-03-31T13:21:06.636Z,16.01
2023-03-31T13:23:36.277Z,16.03
2023-03-31T13:26:06.151Z,15.98
2023-03-31T13:28:42.664Z,15.92
2023-03-31T13:31:12.584Z,15.70
2023-03-31T13:33:46.023Z,15.75
2023-03-31T13:36:35.244Z,15.84
2023-03-31T13:39:28.257Z,15.90
2023-03-31T13:42:06.809Z,15.81
2023-03-31T13:45:09.147Z,15.81
2023-03-31T13:47:57.663Z,15.91
2023-03-31T13:50:52.431Z,16.01
2023-03-31T13:53:52.354Z,16.02
2023-03-31T13:57:02.065Z,16.04
2023-03-31T13:59:59.160Z,16.08
2023-03-31T14:02:33.912Z,16.05
2023-03-31T14:05:28.134Z,15.94
2023-03-31T14:07:58.389Z,15.96
2023-03-31T14:10:34.946Z,15.90
2023-03-31T14:13:07.610Z,15.92
2023-03-31T14:15:42.898Z,15.92
2023-03-31T14:18:14.670Z,15.91
2023-03-31T14:20:48.668Z,15.86
2023-03-31T14:23:21.537Z,15.64
2023-03-31T14:25:52.563Z,15.51
2023-03-31T14:28:31.564Z,15.44
2023-03-31T14:31:57.493Z,15.42
2023-03-31T14:34:49.500Z,15.36
2023-03-31T14:37:23.914Z,15.35
2023-03-31T14:39:55.127Z,15.29
2023-03-31T14:42:27.466Z,15.20
2023-03-31T14:44:57.465Z,15.05
2023-03-31T14:47:29.424Z,15.09
2023-03-31T14:50:32.891Z,15.10
2023-03-31T14:53:02.636Z,15.10
2023-03-31T14:55:44.055Z,15.05
2023-03-31T14:58:27.594Z,15.10
2023-03-31T15:00:56.316Z,15.08
2023-03-31T15:03:27.963Z,15.05
2023-03-31T15:06:00.094Z,15.01
2023-03-31T15:08:29.886Z,14.99
2023-03-31T15:11:11.810Z,14.91
2023-03-31T15:14:03.474Z,14.86
2023-03-31T15:16:43.318Z,14.81
2023-03-31T15:19:21.089Z,14.84
2023-03-31T15:22:05.943Z,14.80
2023-03-31T15:24:34.686Z,14.58
2023-03-31T15:27:15.010Z,14.37
2023-03-31T15:29:57.472Z,14.26
2023-03-31T15:32:29.186Z,14.38
2023-03-31T15:35:04.745Z,14.31
2023-03-31T15:37:41.247Z,14.25
2023-03-31T15:40:22.759Z,14.24
2023-03-31T15:43:06.317Z,14.33
2023-03-31T15:45:47.948Z,14.33
2023-03-31T15:48:33.807Z,14.34
2023-03-31T15:51:04.342Z,14.31
2023-03-31T15:53:39.670Z,14.31
2023-03-31T15:56:34.860Z,14.21
2023-03-31T15:59:25.151Z,14.13
2023-03-31T16:01:57.717Z,14.06
2023-03-31T16:04:31.349Z,13.99
2023-03-31T16:07:05.766Z,14.00
2023-03-31T16:09:51.692Z,13.99
2023-03-31T16:12:29.847Z,13.91
2023-03-31T16:14:59.600Z,13.70
2023-03-31T16:17:31.761Z,13.60
2023-03-31T16:20:09.032Z,13.54
2023-03-31T16:22:43.926Z,13.43
2023-03-31T16:25:17.261Z,13.39
2023-03-31T16:27:53.162Z,13.17
2023-03-31T16:30:34.517Z,13.17
2023-03-31T16:33:04.514Z,13.00
2023-03-31T16:35:35.432Z,12.96
2023-03-31T16:38:05.103Z,12.99
2023-03-31T16:40:42.339Z,12.91
2023-03-31T16:43:17.950Z,12.95
2023-03-31T16:45:49.280Z,12.89
2023-03-31T16:48:20.000Z,12.76
2023-03-31T16:50:51.819Z,12.87
2023-03-31T16:53:24.666Z,12.84
2023-03-31T16:55:53.811Z,12.73
2023-03-31T16:58:24.842Z,12.63
2023-03-31T17:00:54.225Z,12.67
2023-03-31T17:03:28.030Z,12.64
2023-03-31T17:05:59.280Z,12.61
2023-03-31T17:08:31.597Z,12.58
2023-03-31T17:11:05.590Z,12.52
2023-03-31T17:13:34.531Z,12.51
2023-03-31T17:16:13.107Z,12.54
2023-03-31T17:18:46.282Z,12.46
2023-03-31T17:21:16.203Z,12.35
2023-03-31T17:23:49.944Z,12.30
2023-03-31T17:26:18.766Z,12.23
2023-03-31T17:28:47.622Z,12.21
2023-03-31T17:31:20.667Z,12.23
2023-03-31T17:33:49.231Z,12.18
2023-03-31T17:36:22.512Z,12.17
2023-03-31T17:38:51.356Z,12.11
2023-03-31T17:41:20.020Z,12.06
2023-03-31T17:43:50.443Z,12.03
2023-03-31T17:46:19.230Z,12.04
2023-03-31T17:48:48.820Z,12.03
2023-03-31T17:51:18.494Z,12.09
2023-03-31T17:53:55.001Z,11.97
2023-03-31T17:56:24.357Z,12.02
2023-03-31T17:58:52.991Z,11.99
2023-03-31T18:01:21.941Z,11.97
2023-03-31T18:03:51.309Z,11.97
2023-03-31T18:06:19.642Z,11.92
2023-03-31T18:08:48.235Z,11.94
2023-03-31T18:11:17.480Z,11.98
2023-03-31T18:13:54.214Z,12.03
2023-03-31T18:16:23.911Z,12.03
2023-03-31T18:18:52.595Z,12.05
2023-03-31T18:21:27.411Z,12.03
2023-03-31T18:23:57.267Z,12.08
2023-03-31T18:26:29.952Z,12.05
2023-03-31T18:28:59.388Z,12.01
2023-03-31T18:31:28.567Z,11.96
2023-03-31T18:33:58.266Z,11.99
2023-03-31T18:36:28.608Z,12.08
2023-03-31T18:38:57.589Z,12.16
2023-03-31T18:41:30.060Z,12.08
2023-03-31T18:43:59.269Z,12.05
2023-03-31T18:46:30.621Z,12.14
2023-03-31T18:48:59.799Z,12.15
2023-03-31T18:51:28.898Z,12.20
2023-03-31T18:53:57.590Z,12.18
2023-03-31T18:56:27.196Z,12.26
2023-03-31T18:58:56.739Z,12.24
2023-03-31T19:01:26.617Z,12.23
2023-03-31T19:03:56.151Z,12.26
2023-03-31T19:06:26.362Z,12.21
2023-03-31T19:08:56.851Z,12.15
2023-03-31T19:11:25.773Z,12.13
2023-03-31T19:13:55.720Z,12.12
2023-03-31T19:16:45.192Z,12.05
2023-03-31T19:19:13.904Z,11.98
2023-03-31T19:21:43.132Z,11.94
2023-03-31T19:24:12.146Z,11.91
2023-03-31T19:26:42.246Z,11.72
2023-03-31T19:29:11.321Z,11.71
2023-03-31T19:31:41.685Z,11.75
2023-03-31T19:34:13.151Z,11.78
2023-03-31T19:36:41.770Z,11.66
2023-03-31T19:39:11.782Z,11.60
2023-03-31T19:41:41.296Z,11.64
2023-03-31T19:44:09.861Z,11.65
2023-03-31T19:46:38.615Z,11.52
2023-03-31T19:49:07.592Z,11.61
2023-03-31T19:51:36.814Z,11.60
2023-03-31T19:54:06.302Z,11.37
2023-03-31T19:56:38.670Z,11.36
2023-03-31T19:59:08.446Z,11.40
2023-03-31T20:01:37.785Z,11.48
2023-03-31T20:04:10.956Z,11.47
2023-03-31T20:06:40.019Z,11.22
2023-03-31T20:09:08.982Z,11.21
2023-03-31T20:11:40.185Z,11.25
2023-03-31T20:14:10.942Z,11.14
2023-03-31T20:16:39.652Z,11.05
2023-03-31T20:19:08.989Z,11.12
2023-03-31T20:21:39.203Z,11.21
2023-03-31T20:24:08.070Z,11.05
2023-03-31T20:26:38.685Z,10.86
2023-03-31T20:29:07.385Z,10.81
2023-03-31T20:31:37.873Z,10.91
2023-03-31T20:34:12.404Z,10.88
2023-03-31T20:36:49.524Z,10.84
2023-03-31T20:39:18.750Z,10.82
2023-03-31T20:41:48.329Z,10.93
2023-03-31T20:44:17.661Z,10.92
2023-03-31T20:46:48.745Z,10.90
2023-03-31T20:49:18.510Z,10.96
2023-03-31T20:51:47.829Z,10.95
2023-03-31T20:54:16.550Z,10.90
2023-03-31T20:56:45.723Z,10.83
2023-03-31T20:59:15.472Z,10.86
2023-03-31T21:01:45.566Z,10.72
2023-03-31T21:04:17.228Z,10.83
2023-03-31T21:06:47.346Z,10.83
2023-03-31T21:09:16.663Z,10.79
2023-03-31T21:11:47.721Z,10.77
2023-03-31T21:14:16.820Z,10.75
2023-03-31T21:16:45.872Z,10.62
2023-03-31T21:19:14.866Z,10.61
2023-03-31T21:21:43.529Z,10.45
2023-03-31T21:24:12.782Z,10.46
2023-03-31T21:26:42.239Z,10.59
2023-03-31T21:29:12.771Z,10.42
2023-03-31T21:31:42.358Z,10.58
2023-03-31T21:34:12.180Z,10.56
2023-03-31T21:36:40.811Z,10.49
2023-03-31T21:39:10.015Z,10.55
2023-03-31T21:41:40.719Z,10.59
2023-03-31T21:44:10.155Z,10.24
2023-03-31T21:46:39.508Z,10.28
2023-03-31T21:49:08.427Z,10.46
2023-03-31T21:51:37.173Z,10.47
2023-03-31T21:54:07.040Z,10.42
2023-03-31T21:56:35.856Z,10.46
2023-03-31T21:59:04.572Z,10.48
2023-03-31T22:01:33.144Z,10.38
2023-03-31T22:04:02.407Z,10.33
2023-03-31T22:06:31.148Z,10.42
2023-03-31T22:08:59.590Z,10.38
2023-03-31T22:11:31.442Z,10.20
2023-03-31T22:14:00.815Z,10.08
2023-03-31T22:16:29.845Z,10.10
2023-03-31T22:18:59.558Z,10.06
2023-03-31T22:21:43.839Z,10.03
2023-03-31T22:24:13.944Z,10.06
2023-03-31T22:26:43.298Z,9.94
2023-03-31T22:29:15.165Z,9.79
2023-03-31T22:31:45.140Z,9.73
2023-03-31T22:34:15.710Z,9.70
2023-03-31T22:36:44.904Z,9.75
2023-03-31T22:39:14.727Z,9.63
2023-03-31T22:41:43.824Z,9.69
2023-03-31T22:44:12.150Z,9.92
2023-03-31T22:46:41.857Z,10.03
2023-03-31T22:49:10.398Z,9.81
2023-03-31T22:51:40.943Z,9.74
2023-03-31T22:54:13.183Z,9.54
2023-03-31T22:56:43.207Z,9.69
2023-03-31T22:59:11.852Z,9.67
2023-03-31T23:01:40.605Z,9.50
2023-03-31T23:04:09.369Z,9.49
2023-03-31T23:06:39.337Z,9.68
2023-03-31T23:09:08.132Z,9.52
2023-03-31T23:11:37.491Z,9.74
2023-03-31T23:14:06.088Z,9.74
2023-03-31T23:16:34.636Z,9.73
2023-03-31T23:19:03.906Z,9.77
2023-03-31T23:21:32.868Z,9.67
2023-03-31T23:24:02.366Z,9.70
2023-03-31T23:26:32.515Z,9.62
2023-03-31T23:29:01.309Z,9.75
2023-03-31T23:31:31.937Z,9.65
2023-03-31T23:34:00.774Z,9.65
2023-03-31T23:36:29.659Z,9.46
2023-03-31T23:39:01.445Z,9.54
2023-03-31T23:41:31.664Z,9.50
2023-03-31T23:44:00.259Z,9.74
2023-03-31T23:46:30.020Z,9.78
2023-03-31T23:48:58.972Z,9.59
2023-03-31T23:51:27.747Z,9.73
2023-03-31T23:53:56.567Z,9.60
2023-03-31T23:56:25.657Z,9.42
2023-03-31T23:58:55.721Z,9.71
